createdAt,value
2023-03-07T00:00:40.881Z,2.74
2023-03-07T00:03:07.492Z,2.73
2023-03-07T00:05:34.088Z,2.84
2023-03-07T00:08:00.529Z,2.80
2023-03-07T00:10:26.940Z,2.77
2023-03-07T00:12:53.398Z,2.73
2023-03-07T00:15:21.068Z,2.72
2023-03-07T00:17:47.651Z,2.77
2023-03-07T00:20:15.192Z,2.86
2023-03-07T00:22:44.233Z,2.80
2023-03-07T00:25:10.965Z,2.81
2023-03-07T00:27:37.437Z,2.76
2023-03-07T00:30:04.721Z,2.83
2023-03-07T00:32:32.102Z,2.72
2023-03-07T00:34:59.726Z,2.77
2023-03-07T00:37:27.805Z,2.64
2023-03-07T00:39:54.248Z,2.75
2023-03-07T00:42:20.740Z,2.75
2023-03-07T00:44:47.333Z,2.76
2023-03-07T00:47:13.780Z,2.76
2023-03-07T00:49:40.230Z,2.78
2023-03-07T00:52:06.909Z,2.79
2023-03-07T00:54:33.425Z,2.83
2023-03-07T00:56:59.866Z,2.89
2023-03-07T00:59:26.294Z,2.86
2023-03-07T01:01:52.726Z,2.89
2023-03-07T01:04:19.216Z,2.78
2023-03-07T01:06:45.678Z,2.85
2023-03-07T01:09:12.191Z,2.82
2023-03-07T01:11:38.639Z,2.93
2023-03-07T01:14:05.958Z,2.90
2023-03-07T01:16:35.177Z,2.91
2023-03-07T01:19:05.030Z,2.91
2023-03-07T01:21:40.077Z,2.85
2023-03-07T01:24:08.211Z,2.97
2023-03-07T01:26:34.911Z,3.02
2023-03-07T01:29:03.412Z,2.91
2023-03-07T01:31:30.624Z,2.95
2023-03-07T01:33:57.179Z,2.93
2023-03-07T01:36:30.349Z,3.02
2023-03-07T01:39:16.956Z,2.98
2023-03-07T01:41:45.050Z,2.99
2023-03-07T01:44:23.128Z,3.02
2023-03-07T01:47:00.513Z,3.04
2023-03-07T01:49:33.199Z,3.00
2023-03-07T01:52:01.797Z,2.98
2023-03-07T01:54:29.206Z,2.93
2023-03-07T01:56:56.045Z,2.88
2023-03-07T01:59:28.649Z,2.86
2023-03-07T02:01:55.571Z,2.85
2023-03-07T02:04:34.557Z,2.78
2023-03-07T02:07:01.457Z,2.89
2023-03-07T02:09:28.634Z,2.95
2023-03-07T02:11:56.922Z,2.90
2023-03-07T02:14:23.385Z,2.91
2023-03-07T02:16:49.952Z,2.97
2023-03-07T02:19:42.517Z,2.95
2023-03-07T02:22:14.708Z,3.02
2023-03-07T02:24:51.566Z,3.02
2023-03-07T02:27:18.240Z,2.95
2023-03-07T02:29:44.697Z,2.97
2023-03-07T02:32:11.291Z,2.76
2023-03-07T02:34:37.908Z,2.94
2023-03-07T02:37:09.232Z,2.95
2023-03-07T02:39:36.016Z,3.01
2023-03-07T02:42:07.680Z,2.88
2023-03-07T02:44:34.258Z,2.92
2023-03-07T02:47:00.816Z,2.98
2023-03-07T02:49:27.328Z,2.93
2023-03-07T02:51:57.728Z,2.96
2023-03-07T02:54:25.315Z,3.00
2023-03-07T02:56:52.947Z,2.96
2023-03-07T02:59:19.382Z,2.98
2023-03-07T03:01:46.410Z,2.94
2023-03-07T03:04:12.851Z,3.03
2023-03-07T03:06:39.307Z,2.97
2023-03-07T03:09:06.043Z,3.05
2023-03-07T03:11:32.477Z,3.04
2023-03-07T03:13:59.031Z,3.02
2023-03-07T03:16:25.535Z,3.08
2023-03-07T03:18:51.956Z,3.12
2023-03-07T03:21:18.390Z,3.02
2023-03-07T03:23:44.839Z,3.03
2023-03-07T03:26:11.851Z,3.03
2023-03-07T03:28:39.766Z,3.08
2023-03-07T03:31:08.648Z,2.97
2023-03-07T03:33:35.570Z,2.88
2023-03-07T03:36:07.772Z,2.89
2023-03-07T03:38:34.414Z,2.90
2023-03-07T03:41:13.121Z,2.94
2023-03-07T03:43:39.593Z,3.00
2023-03-07T03:46:06.808Z,2.94
2023-03-07T03:48:33.335Z,2.85
2023-03-07T03:51:20.120Z,2.91
2023-03-07T03:53:46.774Z,2.82
2023-03-07T03:56:16.383Z,2.87
2023-03-07T03:58:43.342Z,2.88
2023-03-07T04:01:11.749Z,2.92
2023-03-07T04:03:40.352Z,2.96
2023-03-07T04:06:10.086Z,2.97
2023-03-07T04:08:37.023Z,2.99
2023-03-07T04:11:04.848Z,2.94
2023-03-07T04:13:35.065Z,2.97
2023-03-07T04:16:02.055Z,3.02
2023-03-07T04:18:28.839Z,3.01
2023-03-07T04:20:55.344Z,3.05
2023-03-07T04:23:23.370Z,3.07
2023-03-07T04:25:57.400Z,3.10
2023-03-07T04:28:29.308Z,3.10
2023-03-07T04:30:56.420Z,3.16
2023-03-07T04:33:22.991Z,3.15
2023-03-07T04:35:49.474Z,3.16
2023-03-07T04:38:16.060Z,3.15
2023-03-07T04:40:42.579Z,2.82
2023-03-07T04:43:09.027Z,2.86
2023-03-07T04:45:39.965Z,2.97
2023-03-07T04:48:06.890Z,2.93
2023-03-07T04:50:33.299Z,2.92
2023-03-07T04:52:59.731Z,2.97
2023-03-07T04:55:26.237Z,3.08
2023-03-07T04:57:52.772Z,3.02
2023-03-07T05:00:20.056Z,2.81
2023-03-07T05:02:48.599Z,2.86
2023-03-07T05:05:15.523Z,2.98
2023-03-07T05:07:42.550Z,2.96
2023-03-07T05:10:10.205Z,3.05
2023-03-07T05:12:36.742Z,3.10
2023-03-07T05:15:03.473Z,3.03
2023-03-07T05:17:30.830Z,3.06
2023-03-07T05:19:57.351Z,3.11
2023-03-07T05:22:24.199Z,3.06
2023-03-07T05:24:50.679Z,3.08
2023-03-07T05:27:17.202Z,3.01
2023-03-07T05:29:43.612Z,2.95
2023-03-07T05:32:11.150Z,3.05
2023-03-07T05:34:38.218Z,3.03
2023-03-07T05:37:05.157Z,3.08
2023-03-07T05:39:31.651Z,3.07
2023-03-07T05:41:58.076Z,3.05
2023-03-07T05:44:24.491Z,3.04
2023-03-07T05:46:50.971Z,3.04
2023-03-07T05:49:17.500Z,3.03
2023-03-07T05:51:43.926Z,2.93
2023-03-07T05:54:11.539Z,2.87
2023-03-07T05:56:37.981Z,2.93
2023-03-07T05:59:07.627Z,2.94
2023-03-07T06:01:34.468Z,2.88
2023-03-07T06:04:00.962Z,2.89
2023-03-07T06:06:27.712Z,2.92
2023-03-07T06:08:55.428Z,2.89
2023-03-07T06:11:22.035Z,2.98
2023-03-07T06:13:48.471Z,2.92
2023-03-07T06:16:14.999Z,2.96
2023-03-07T06:18:41.556Z,2.91
2023-03-07T06:21:09.167Z,2.88
2023-03-07T06:23:37.010Z,2.87
2023-03-07T06:26:04.739Z,2.87
2023-03-07T06:28:32.810Z,2.97
2023-03-07T06:30:59.625Z,2.89
2023-03-07T06:33:26.182Z,2.91
2023-03-07T06:35:52.702Z,2.97
2023-03-07T06:38:19.348Z,2.95
2023-03-07T06:40:45.817Z,3.05
2023-03-07T06:43:12.523Z,3.08
2023-03-07T06:45:38.974Z,2.98
2023-03-07T06:48:05.492Z,3.04
2023-03-07T06:50:35.394Z,3.15
2023-03-07T06:53:02.431Z,3.07
2023-03-07T06:55:28.850Z,3.08
2023-03-07T06:57:55.361Z,3.11
2023-03-07T07:00:22.721Z,3.10
2023-03-07T07:02:49.961Z,3.08
2023-03-07T07:05:16.775Z,3.09
2023-03-07T07:07:43.340Z,3.13
2023-03-07T07:10:10.673Z,3.10
2023-03-07T07:12:37.111Z,3.10
2023-03-07T07:15:05.582Z,3.16
2023-03-07T07:17:32.871Z,3.14
2023-03-07T07:19:59.308Z,3.19
2023-03-07T07:22:25.824Z,3.18
2023-03-07T07:24:52.277Z,3.19
2023-03-07T07:27:18.800Z,3.24
2023-03-07T07:29:45.332Z,3.23
2023-03-07T07:32:11.898Z,3.26
2023-03-07T07:34:38.506Z,3.32
2023-03-07T07:37:05.154Z,3.35
2023-03-07T07:39:31.662Z,3.35
2023-03-07T07:41:58.081Z,3.37
2023-03-07T07:44:24.645Z,3.35
2023-03-07T07:46:51.104Z,3.37
2023-03-07T07:49:18.709Z,3.41
2023-03-07T07:51:45.313Z,3.54
2023-03-07T07:54:13.310Z,3.52
2023-03-07T07:56:39.800Z,3.60
2023-03-07T07:59:06.275Z,3.62
2023-03-07T08:01:32.899Z,3.60
2023-03-07T08:03:59.339Z,3.64
2023-03-07T08:06:27.487Z,3.72
2023-03-07T08:08:55.325Z,3.71
2023-03-07T08:11:22.402Z,3.72
2023-03-07T08:13:49.023Z,3.78
2023-03-07T08:16:20.990Z,3.81
2023-03-07T08:18:55.962Z,3.85
2023-03-07T08:21:23.717Z,3.86
2023-03-07T08:23:50.294Z,3.92
2023-03-07T08:26:17.891Z,3.98
2023-03-07T08:28:44.760Z,4.04
2023-03-07T08:31:16.459Z,4.05
2023-03-07T08:33:43.381Z,4.16
2023-03-07T08:36:09.951Z,4.21
2023-03-07T08:38:36.383Z,4.27
2023-03-07T08:41:04.664Z,4.29
2023-03-07T08:43:32.359Z,4.29
2023-03-07T08:45:59.446Z,4.28
2023-03-07T08:48:26.626Z,4.34
2023-03-07T08:50:55.020Z,4.35
2023-03-07T08:53:22.160Z,4.38
2023-03-07T08:55:48.747Z,4.40
2023-03-07T08:58:15.274Z,4.41
2023-03-07T09:00:41.817Z,4.49
2023-03-07T09:03:08.402Z,4.57
2023-03-07T09:05:38.074Z,4.64
2023-03-07T09:08:07.142Z,4.63
2023-03-07T09:10:34.257Z,4.72
2023-03-07T09:13:00.933Z,4.75
2023-03-07T09:15:27.428Z,4.80
2023-03-07T09:17:53.948Z,4.83
2023-03-07T09:20:20.424Z,4.90
2023-03-07T09:22:46.999Z,4.93
2023-03-07T09:25:13.634Z,4.93
2023-03-07T09:27:40.142Z,4.97
2023-03-07T09:30:07.458Z,5.05
2023-03-07T09:32:34.091Z,5.01
2023-03-07T09:35:00.603Z,4.99
2023-03-07T09:37:27.126Z,5.02
2023-03-07T09:39:53.598Z,5.06
2023-03-07T09:42:40.281Z,5.08
2023-03-07T09:45:24.454Z,5.09
2023-03-07T09:48:20.162Z,5.03
2023-03-07T09:51:07.574Z,5.12
2023-03-07T09:53:42.747Z,5.09
2023-03-07T09:56:14.210Z,5.17
2023-03-07T09:58:44.196Z,5.23
2023-03-07T10:01:12.864Z,5.28
2023-03-07T10:04:00.321Z,5.29
2023-03-07T10:06:38.670Z,5.31
2023-03-07T10:09:08.063Z,5.39
2023-03-07T10:12:23.748Z,5.38
2023-03-07T10:15:27.732Z,5.60
2023-03-07T10:18:15.432Z,5.50
2023-03-07T10:21:02.254Z,5.63
2023-03-07T10:24:07.972Z,5.58
2023-03-07T10:26:42.959Z,5.44
2023-03-07T10:29:18.384Z,5.50
2023-03-07T10:31:48.366Z,5.54
2023-03-07T10:34:27.262Z,5.59
2023-03-07T10:37:08.488Z,5.56
2023-03-07T10:39:47.172Z,5.60
2023-03-07T10:42:15.212Z,5.60
2023-03-07T10:44:42.249Z,5.59
2023-03-07T10:47:18.090Z,5.56
2023-03-07T10:49:46.333Z,5.55
2023-03-07T10:52:28.183Z,5.61
2023-03-07T10:54:57.091Z,5.62
2023-03-07T10:57:27.764Z,5.63
2023-03-07T10:59:54.963Z,5.57
2023-03-07T11:02:36.808Z,5.68
2023-03-07T11:05:23.879Z,5.69
2023-03-07T11:07:50.357Z,5.75
2023-03-07T11:10:37.281Z,5.78
2023-03-07T11:13:17.978Z,5.77
2023-03-07T11:15:48.836Z,5.87
2023-03-07T11:18:45.020Z,5.95
2023-03-07T11:21:35.350Z,5.95
2023-03-07T11:24:04.812Z,6.02
2023-03-07T11:26:33.603Z,6.06
2023-03-07T11:29:13.769Z,6.14
2023-03-07T11:31:47.676Z,6.27
2023-03-07T11:34:33.000Z,6.36
2023-03-07T11:37:16.329Z,6.28
2023-03-07T11:40:18.168Z,6.23
2023-03-07T11:43:09.496Z,6.15
2023-03-07T11:45:39.081Z,6.17
2023-03-07T11:48:05.447Z,6.13
2023-03-07T11:50:32.751Z,6.12
2023-03-07T11:53:24.070Z,6.08
2023-03-07T11:56:20.933Z,6.05
2023-03-07T11:58:54.639Z,6.04
2023-03-07T12:01:47.356Z,6.01
2023-03-07T12:04:52.793Z,6.02
2023-03-07T12:07:42.201Z,6.02
2023-03-07T12:10:29.838Z,5.99
2023-03-07T12:13:24.973Z,5.88
2023-03-07T12:15:57.947Z,5.73
2023-03-07T12:18:45.893Z,5.51
2023-03-07T12:21:30.494Z,5.31
2023-03-07T12:24:03.018Z,5.27
2023-03-07T12:26:48.274Z,5.22
2023-03-07T12:29:32.808Z,5.15
2023-03-07T12:32:01.069Z,5.15
2023-03-07T12:34:36.233Z,5.09
2023-03-07T12:37:16.516Z,5.11
2023-03-07T12:39:54.326Z,4.94
2023-03-07T12:42:32.768Z,4.98
2023-03-07T12:45:06.517Z,4.93
2023-03-07T12:47:39.936Z,4.94
2023-03-07T12:50:15.053Z,4.99
2023-03-07T12:52:54.457Z,5.02
2023-03-07T12:55:25.006Z,4.96
2023-03-07T12:58:26.527Z,4.99
2023-03-07T13:01:13.729Z,5.20
2023-03-07T13:03:56.643Z,5.24
2023-03-07T13:06:23.807Z,5.19
2023-03-07T13:08:52.599Z,5.25
2023-03-07T13:11:22.836Z,5.30
2023-03-07T13:13:53.804Z,5.41
2023-03-07T13:16:41.782Z,5.47
2023-03-07T13:19:36.321Z,5.48
2023-03-07T13:22:04.669Z,5.55
2023-03-07T13:24:41.663Z,5.52
2023-03-07T13:27:15.755Z,5.50
2023-03-07T13:30:10.244Z,5.55
2023-03-07T13:32:51.906Z,5.59
2023-03-07T13:35:24.462Z,5.63
2023-03-07T13:38:16.224Z,5.63
2023-03-07T13:40:48.572Z,5.72
2023-03-07T13:43:27.483Z,5.75
2023-03-07T13:45:58.566Z,5.79
2023-03-07T13:48:25.008Z,5.81
2023-03-07T13:50:51.383Z,5.82
2023-03-07T13:53:28.954Z,5.80
2023-03-07T13:56:17.502Z,5.85
2023-03-07T13:58:56.312Z,5.87
2023-03-07T14:01:30.320Z,5.88
2023-03-07T14:04:20.379Z,5.81
2023-03-07T14:06:56.718Z,5.84
2023-03-07T14:09:26.391Z,5.81
2023-03-07T14:12:01.971Z,5.86
2023-03-07T14:14:56.691Z,5.89
2023-03-07T14:17:41.336Z,6.02
2023-03-07T14:20:09.680Z,6.07
2023-03-07T14:23:04.132Z,6.10
2023-03-07T14:25:33.104Z,6.18
2023-03-07T14:28:00.573Z,6.23
2023-03-07T14:30:32.013Z,6.30
2023-03-07T14:33:00.134Z,6.34
2023-03-07T14:35:34.740Z,6.32
2023-03-07T14:38:01.408Z,6.31
2023-03-07T14:40:30.644Z,6.32
2023-03-07T14:43:04.280Z,6.34
2023-03-07T14:46:29.494Z,6.37
2023-03-07T14:49:26.226Z,6.38
2023-03-07T14:51:52.702Z,6.44
2023-03-07T14:54:22.278Z,6.46
2023-03-07T14:56:51.278Z,6.48
2023-03-07T14:59:28.026Z,6.48
2023-03-07T15:01:55.672Z,6.47
2023-03-07T15:04:29.159Z,6.50
2023-03-07T15:07:04.555Z,6.52
2023-03-07T15:09:32.215Z,6.59
2023-03-07T15:12:04.975Z,6.55
2023-03-07T15:14:44.372Z,6.58
2023-03-07T15:17:16.686Z,6.60
2023-03-07T15:20:07.694Z,6.58
2023-03-07T15:22:40.288Z,6.57
2023-03-07T15:25:17.818Z,6.58
2023-03-07T15:27:44.334Z,6.56
2023-03-07T15:30:31.948Z,6.63
2023-03-07T15:33:19.999Z,6.64
2023-03-07T15:36:05.464Z,6.55
2023-03-07T15:38:32.650Z,6.50
2023-03-07T15:40:59.323Z,6.52
2023-03-07T15:43:28.230Z,6.54
2023-03-07T15:46:07.510Z,6.53
2023-03-07T15:48:43.465Z,6.54
2023-03-07T15:51:17.439Z,6.55
2023-03-07T15:53:44.413Z,6.48
2023-03-07T15:56:30.412Z,6.40
2023-03-07T15:59:02.074Z,6.39
2023-03-07T16:01:28.717Z,6.47
2023-03-07T16:04:00.287Z,6.37
2023-03-07T16:06:41.818Z,6.28
2023-03-07T16:09:17.321Z,6.33
2023-03-07T16:11:45.360Z,6.31
2023-03-07T16:14:20.811Z,6.34
2023-03-07T16:16:47.497Z,6.30
2023-03-07T16:19:14.484Z,6.26
2023-03-07T16:21:40.919Z,6.29
2023-03-07T16:24:07.584Z,6.26
2023-03-07T16:26:34.086Z,6.19
2023-03-07T16:29:00.844Z,6.22
2023-03-07T16:31:27.456Z,6.22
2023-03-07T16:33:54.924Z,6.19
2023-03-07T16:36:21.446Z,6.20
2023-03-07T16:38:47.918Z,6.20
2023-03-07T16:41:24.358Z,6.15
2023-03-07T16:43:57.530Z,6.18
2023-03-07T16:46:24.525Z,6.12
2023-03-07T16:48:51.012Z,6.14
2023-03-07T16:51:19.818Z,6.12
2023-03-07T16:53:47.220Z,6.09
2023-03-07T16:56:25.460Z,6.13
2023-03-07T16:58:52.168Z,6.07
2023-03-07T17:01:18.646Z,6.06
2023-03-07T17:03:45.157Z,6.07
2023-03-07T17:06:16.376Z,6.11
2023-03-07T17:08:43.800Z,6.08
2023-03-07T17:11:21.883Z,6.12
2023-03-07T17:13:49.689Z,6.07
2023-03-07T17:16:17.018Z,6.10
2023-03-07T17:18:44.002Z,6.08
2023-03-07T17:21:19.033Z,6.08
2023-03-07T17:23:46.035Z,6.03
2023-03-07T17:26:33.536Z,6.10
2023-03-07T17:29:05.860Z,6.07
2023-03-07T17:31:32.286Z,6.05
2023-03-07T17:33:58.702Z,6.11
2023-03-07T17:36:25.257Z,6.04
2023-03-07T17:38:51.969Z,6.10
2023-03-07T17:41:18.480Z,6.07
2023-03-07T17:43:44.936Z,6.02
2023-03-07T17:46:11.852Z,6.02
2023-03-07T17:48:38.584Z,6.01
2023-03-07T17:51:09.454Z,6.03
2023-03-07T17:53:37.361Z,5.97
2023-03-07T17:56:08.784Z,5.99
2023-03-07T17:58:35.627Z,5.95
2023-03-07T18:01:02.107Z,6.02
2023-03-07T18:03:28.692Z,5.98
2023-03-07T18:05:55.185Z,6.00
2023-03-07T18:08:21.618Z,5.96
2023-03-07T18:10:48.043Z,5.98
2023-03-07T18:13:14.971Z,6.00
2023-03-07T18:15:45.577Z,6.05
2023-03-07T18:18:12.096Z,6.03
2023-03-07T18:20:39.024Z,6.03
2023-03-07T18:23:05.481Z,5.99
2023-03-07T18:25:31.982Z,6.02
2023-03-07T18:28:01.657Z,6.00
2023-03-07T18:30:28.240Z,5.93
2023-03-07T18:32:55.279Z,5.95
2023-03-07T18:35:23.416Z,5.93
2023-03-07T18:37:49.891Z,5.90
2023-03-07T18:40:19.271Z,5.99
2023-03-07T18:42:45.829Z,5.96
2023-03-07T18:45:12.496Z,5.98
2023-03-07T18:47:41.635Z,5.96
2023-03-07T18:50:09.299Z,6.03
2023-03-07T18:52:35.756Z,5.99
2023-03-07T18:55:02.165Z,5.94
2023-03-07T18:57:28.620Z,5.96
2023-03-07T18:59:55.082Z,5.97
2023-03-07T19:02:21.580Z,5.89
2023-03-07T19:04:48.150Z,5.91
2023-03-07T19:07:14.543Z,5.92
2023-03-07T19:09:42.754Z,5.90
2023-03-07T19:12:10.710Z,5.84
2023-03-07T19:14:37.929Z,5.85
2023-03-07T19:17:04.478Z,5.88
2023-03-07T19:19:30.949Z,5.86
2023-03-07T19:21:57.476Z,5.85
2023-03-07T19:24:23.928Z,5.80
2023-03-07T19:26:50.474Z,5.81
2023-03-07T19:29:16.931Z,5.82
2023-03-07T19:31:44.268Z,5.81
2023-03-07T19:34:11.383Z,5.81
2023-03-07T19:36:39.102Z,5.80
2023-03-07T19:39:05.648Z,5.75
2023-03-07T19:41:32.454Z,5.79
2023-03-07T19:44:00.018Z,5.78
2023-03-07T19:46:28.183Z,5.77
2023-03-07T19:48:54.791Z,5.79
2023-03-07T19:51:23.334Z,5.76
2023-03-07T19:53:50.406Z,5.76
2023-03-07T19:56:22.816Z,5.75
2023-03-07T19:58:49.607Z,5.79
2023-03-07T20:01:18.162Z,5.74
2023-03-07T20:03:45.358Z,5.74
2023-03-07T20:06:19.877Z,5.73
2023-03-07T20:08:50.848Z,5.73
2023-03-07T20:11:19.698Z,5.70
2023-03-07T20:13:46.786Z,5.72
2023-03-07T20:16:14.927Z,5.69
2023-03-07T20:18:41.855Z,5.69
2023-03-07T20:21:11.493Z,5.69
2023-03-07T20:23:38.081Z,5.66
2023-03-07T20:26:06.530Z,5.72
2023-03-07T20:28:33.118Z,5.70
2023-03-07T20:30:59.806Z,5.74
2023-03-07T20:33:26.296Z,5.73
2023-03-07T20:36:04.946Z,5.71
2023-03-07T20:38:32.626Z,5.72
2023-03-07T20:41:07.211Z,5.73
2023-03-07T20:43:33.881Z,5.67
2023-03-07T20:46:08.081Z,5.66
2023-03-07T20:48:34.776Z,5.69
2023-03-07T20:51:11.273Z,5.68
2023-03-07T20:53:37.786Z,5.66
2023-03-07T20:56:05.257Z,5.69
2023-03-07T20:58:32.045Z,5.70
2023-03-07T21:00:59.028Z,5.64
2023-03-07T21:03:25.985Z,5.65
2023-03-07T21:05:56.952Z,5.65
2023-03-07T21:08:23.426Z,5.60
2023-03-07T21:11:03.623Z,5.70
2023-03-07T21:13:31.146Z,5.63
2023-03-07T21:15:59.822Z,5.60
2023-03-07T21:18:27.026Z,5.62
2023-03-07T21:20:53.523Z,5.59
2023-03-07T21:23:19.980Z,5.55
2023-03-07T21:25:47.488Z,5.50
2023-03-07T21:28:13.980Z,5.42
2023-03-07T21:30:40.502Z,5.42
2023-03-07T21:33:07.160Z,5.42
2023-03-07T21:35:40.155Z,5.43
2023-03-07T21:38:09.867Z,5.39
2023-03-07T21:40:36.364Z,5.45
2023-03-07T21:43:04.613Z,5.40
2023-03-07T21:45:32.539Z,5.40
2023-03-07T21:47:59.130Z,5.44
2023-03-07T21:50:25.615Z,5.47
2023-03-07T21:52:52.162Z,5.40
2023-03-07T21:55:22.076Z,5.43
2023-03-07T21:57:48.554Z,5.40
2023-03-07T22:00:16.941Z,5.41
2023-03-07T22:02:44.359Z,5.45
2023-03-07T22:05:11.037Z,5.37
2023-03-07T22:07:38.328Z,5.36
2023-03-07T22:10:07.112Z,5.35
2023-03-07T22:12:33.989Z,5.35
2023-03-07T22:15:00.529Z,5.39
2023-03-07T22:17:27.280Z,5.35
2023-03-07T22:19:53.732Z,5.34
2023-03-07T22:22:20.675Z,5.37
2023-03-07T22:24:49.951Z,5.36
2023-03-07T22:27:19.064Z,5.35
2023-03-07T22:29:45.912Z,5.37
2023-03-07T22:32:15.226Z,5.37
2023-03-07T22:34:41.761Z,5.35
2023-03-07T22:37:08.385Z,5.39
2023-03-07T22:39:34.827Z,5.40
2023-03-07T22:42:01.299Z,5.39
2023-03-07T22:44:27.885Z,5.39
2023-03-07T22:46:55.078Z,5.39
2023-03-07T22:49:23.832Z,5.35
2023-03-07T22:51:50.287Z,5.34
2023-03-07T22:54:19.833Z,5.31
2023-03-07T22:56:46.365Z,5.34
2023-03-07T22:59:12.828Z,5.37
2023-03-07T23:01:39.279Z,5.43
2023-03-07T23:04:07.873Z,5.37
2023-03-07T23:06:35.811Z,5.35
2023-03-07T23:09:03.832Z,5.32
2023-03-07T23:11:31.451Z,5.28
2023-03-07T23:13:58.786Z,5.28
2023-03-07T23:16:27.533Z,5.30
2023-03-07T23:18:55.852Z,5.29
2023-03-07T23:21:25.078Z,5.30
2023-03-07T23:23:55.196Z,5.27
2023-03-07T23:26:32.820Z,5.23
2023-03-07T23:28:59.331Z,5.26
2023-03-07T23:31:30.978Z,5.25
2023-03-07T23:34:01.090Z,5.21
2023-03-07T23:36:29.398Z,5.26
2023-03-07T23:38:56.907Z,5.24
2023-03-07T23:41:24.029Z,5.24
2023-03-07T23:43:54.864Z,5.21
2023-03-07T23:46:21.503Z,5.18
2023-03-07T23:48:47.999Z,5.14
2023-03-07T23:51:14.865Z,5.20
2023-03-07T23:53:41.428Z,5.19
2023-03-07T23:56:09.308Z,5.17
2023-03-07T23:58:36.075Z,5.12
